createdAt,value
2022-08-22T00:00:02.393Z,2.50
2022-08-22T00:02:15.619Z,2.43
2022-08-22T00:03:02.257Z,2.50
2022-08-22T00:03:10.107Z,2.47
2022-08-22T00:04:33.326Z,2.23
2022-08-22T00:06:50.521Z,2.67
2022-08-22T00:09:03.912Z,2.57
2022-08-22T00:11:17.096Z,2.30
2022-08-22T00:13:29.311Z,2.50
2022-08-22T00:15:43.035Z,2.60
2022-08-22T00:17:57.124Z,2.60
2022-08-22T00:20:09.004Z,2.27
2022-08-22T00:22:20.799Z,2.33
2022-08-22T00:24:31.228Z,2.63
2022-08-22T00:26:45.724Z,2.60
2022-08-22T00:28:57.492Z,2.40
2022-08-22T00:31:10.826Z,2.30
2022-08-22T00:33:22.139Z,2.40
2022-08-22T00:35:34.016Z,2.20
2022-08-22T00:37:44.216Z,2.30
2022-08-22T00:39:57.450Z,2.70
2022-08-22T00:42:29.111Z,2.40
2022-08-22T00:44:51.812Z,2.33
2022-08-22T00:47:21.323Z,2.90
2022-08-22T00:49:37.962Z,2.27
2022-08-22T00:52:05.960Z,2.20
2022-08-22T00:54:21.299Z,2.13
2022-08-22T00:56:48.299Z,2.30
2022-08-22T00:59:18.072Z,2.40
2022-08-22T01:01:35.355Z,2.80
2022-08-22T01:03:52.509Z,2.40
2022-08-22T01:06:07.252Z,2.30
2022-08-22T01:08:23.164Z,2.30
2022-08-22T01:10:37.460Z,2.37
2022-08-22T01:12:55.548Z,2.37
2022-08-22T01:15:07.109Z,2.77
2022-08-22T01:17:33.182Z,2.50
2022-08-22T01:19:59.364Z,2.40
2022-08-22T01:22:23.051Z,2.30
2022-08-22T01:25:08.014Z,2.57
2022-08-22T01:27:33.423Z,2.60
2022-08-22T01:30:03.802Z,2.47
2022-08-22T01:32:30.486Z,2.50
2022-08-22T01:34:58.067Z,2.40
2022-08-22T01:37:24.440Z,2.67
2022-08-22T01:39:48.873Z,2.70
2022-08-22T01:42:15.362Z,2.33
2022-08-22T01:44:32.337Z,2.20
2022-08-22T01:46:47.030Z,2.60
2022-08-22T01:48:58.413Z,2.20
2022-08-22T01:51:15.340Z,2.60
2022-08-22T01:53:25.516Z,2.70
2022-08-22T01:55:38.703Z,2.73
2022-08-22T01:57:51.578Z,2.57
2022-08-22T02:00:04.886Z,2.57
2022-08-22T02:02:25.910Z,2.50
2022-08-22T02:04:39.562Z,3.00
2022-08-22T02:06:52.786Z,3.10
2022-08-22T02:09:06.895Z,2.80
2022-08-22T02:11:33.047Z,2.63
2022-08-22T02:13:47.231Z,2.60
2022-08-22T02:16:03.279Z,2.17
2022-08-22T02:18:14.712Z,2.60
2022-08-22T02:20:26.243Z,2.50
2022-08-22T02:22:44.601Z,2.70
2022-08-22T02:25:00.422Z,2.90
2022-08-22T02:27:12.385Z,2.57
2022-08-22T02:29:25.180Z,2.77
2022-08-22T02:31:39.813Z,2.70
2022-08-22T02:33:51.070Z,2.70
2022-08-22T02:36:02.419Z,2.80
2022-08-22T02:38:25.275Z,3.03
2022-08-22T02:40:36.097Z,2.80
2022-08-22T02:42:46.955Z,2.70
2022-08-22T02:45:00.076Z,2.40
2022-08-22T02:47:12.185Z,2.73
2022-08-22T02:49:27.456Z,2.43
2022-08-22T02:51:41.534Z,2.50
2022-08-22T02:54:04.088Z,2.77
2022-08-22T02:56:15.786Z,2.70
2022-08-22T02:58:30.570Z,2.90
2022-08-22T03:00:47.569Z,2.53
2022-08-22T03:03:03.705Z,3.10
2022-08-22T03:05:20.469Z,3.00
2022-08-22T03:07:35.587Z,2.80
2022-08-22T03:09:48.439Z,3.27
2022-08-22T03:12:02.539Z,3.00
2022-08-22T03:14:13.859Z,2.67
2022-08-22T03:16:27.025Z,2.50
2022-08-22T03:18:45.254Z,2.73
2022-08-22T03:20:59.025Z,2.90
2022-08-22T03:23:11.916Z,2.73
2022-08-22T03:25:24.314Z,2.57
2022-08-22T03:27:36.474Z,2.60
2022-08-22T03:29:48.801Z,2.50
2022-08-22T03:32:08.374Z,2.47
2022-08-22T03:34:18.907Z,2.90
2022-08-22T03:36:31.575Z,2.63
2022-08-22T03:38:57.661Z,2.67
2022-08-22T03:41:17.854Z,2.60
2022-08-22T03:43:41.136Z,2.67
2022-08-22T03:46:07.571Z,2.83
2022-08-22T03:48:33.668Z,2.73
2022-08-22T03:50:57.943Z,2.73
2022-08-22T03:53:30.788Z,2.70
2022-08-22T03:55:54.191Z,2.57
2022-08-22T03:58:22.299Z,2.50
2022-08-22T04:00:50.608Z,3.00
2022-08-22T04:03:22.816Z,2.63
2022-08-22T04:05:49.159Z,3.20
2022-08-22T04:08:11.267Z,2.57
2022-08-22T04:10:40.204Z,2.80
2022-08-22T04:13:00.027Z,3.10
2022-08-22T04:15:23.347Z,3.07
2022-08-22T04:17:39.149Z,2.60
2022-08-22T04:19:57.223Z,2.60
2022-08-22T04:22:13.563Z,2.57
2022-08-22T04:24:35.237Z,2.60
2022-08-22T04:26:47.386Z,2.50
2022-08-22T04:29:00.481Z,2.30
2022-08-22T04:31:11.900Z,2.30
2022-08-22T04:33:25.431Z,2.10
2022-08-22T04:35:36.324Z,2.27
2022-08-22T04:37:48.755Z,2.63
2022-08-22T04:39:59.222Z,1.93
2022-08-22T04:42:31.648Z,2.40
2022-08-22T04:44:43.398Z,2.50
2022-08-22T04:46:55.070Z,2.20
2022-08-22T04:49:07.024Z,2.50
2022-08-22T04:51:22.073Z,2.17
2022-08-22T04:53:42.172Z,2.30
2022-08-22T04:55:54.089Z,2.50
2022-08-22T04:58:08.749Z,2.47
2022-08-22T05:00:18.005Z,2.27
2022-08-22T05:02:28.006Z,2.40
2022-08-22T05:04:40.521Z,2.50
2022-08-22T05:06:51.498Z,2.17
2022-08-22T05:09:02.644Z,2.60
2022-08-22T05:11:12.677Z,2.30
2022-08-22T05:13:23.636Z,2.40
2022-08-22T05:15:33.357Z,2.40
2022-08-22T05:17:42.539Z,2.03
2022-08-22T05:19:53.883Z,2.30
2022-08-22T05:22:03.158Z,2.00
2022-08-22T05:24:13.539Z,2.20
2022-08-22T05:26:22.782Z,2.60
2022-08-22T05:28:33.806Z,2.17
2022-08-22T05:30:42.778Z,2.33
2022-08-22T05:32:52.979Z,2.37
2022-08-22T05:35:04.107Z,2.20
2022-08-22T05:37:14.287Z,2.20
2022-08-22T05:39:25.303Z,2.37
2022-08-22T05:41:35.693Z,2.30
2022-08-22T05:43:45.894Z,2.53
2022-08-22T05:45:57.274Z,2.30
2022-08-22T05:48:08.383Z,2.17
2022-08-22T05:50:20.191Z,2.37
2022-08-22T05:52:35.029Z,2.13
2022-08-22T05:54:50.191Z,1.93
2022-08-22T05:57:06.072Z,2.83
2022-08-22T05:59:23.306Z,2.53
2022-08-22T06:01:33.976Z,2.60
2022-08-22T06:03:45.692Z,2.10
2022-08-22T06:05:59.828Z,2.30
2022-08-22T06:08:10.132Z,2.10
2022-08-22T06:10:21.405Z,2.17
2022-08-22T06:12:34.075Z,2.00
2022-08-22T06:14:45.622Z,1.93
2022-08-22T06:16:59.740Z,2.03
2022-08-22T06:19:19.413Z,2.00
2022-08-22T06:21:38.581Z,2.30
2022-08-22T06:23:51.892Z,1.97
2022-08-22T06:26:02.258Z,2.27
2022-08-22T06:28:12.771Z,2.00
2022-08-22T06:30:21.788Z,2.20
2022-08-22T06:32:52.883Z,2.00
2022-08-22T06:35:03.550Z,2.70
2022-08-22T06:37:18.209Z,2.10
2022-08-22T06:39:28.389Z,1.73
2022-08-22T06:41:39.151Z,2.23
2022-08-22T06:43:47.714Z,1.90
2022-08-22T06:45:56.409Z,2.23
2022-08-22T06:48:15.533Z,1.70
2022-08-22T06:50:27.390Z,2.00
2022-08-22T06:52:40.278Z,2.27
2022-08-22T06:54:49.867Z,1.80
2022-08-22T06:56:58.946Z,1.70
2022-08-22T06:59:09.741Z,1.70
2022-08-22T07:01:20.169Z,2.20
2022-08-22T07:03:33.226Z,2.20
2022-08-22T07:05:44.064Z,1.83
2022-08-22T07:07:54.140Z,1.67
2022-08-22T07:10:02.683Z,1.97
2022-08-22T07:12:14.103Z,1.90
2022-08-22T07:14:28.076Z,1.80
2022-08-22T07:16:41.557Z,1.70
2022-08-22T07:18:51.174Z,1.60
2022-08-22T07:21:02.872Z,2.00
2022-08-22T07:23:13.918Z,1.60
2022-08-22T07:25:24.433Z,2.07
2022-08-22T07:27:41.313Z,2.23
2022-08-22T07:29:53.159Z,1.80
2022-08-22T07:32:06.971Z,2.00
2022-08-22T07:34:23.170Z,1.90
2022-08-22T07:36:33.885Z,2.10
2022-08-22T07:38:45.629Z,1.97
2022-08-22T07:40:56.667Z,1.67
2022-08-22T07:43:08.870Z,1.90
2022-08-22T07:45:20.798Z,2.30
2022-08-22T07:47:34.441Z,1.80
2022-08-22T07:49:49.761Z,2.30
2022-08-22T07:52:00.448Z,1.67
2022-08-22T07:54:11.852Z,1.73
2022-08-22T07:56:22.990Z,1.77
2022-08-22T07:58:33.914Z,2.00
2022-08-22T08:00:44.764Z,1.90
2022-08-22T08:02:54.810Z,2.10
2022-08-22T08:05:03.625Z,2.07
2022-08-22T08:07:13.458Z,1.83
2022-08-22T08:09:23.973Z,1.70
2022-08-22T08:11:35.658Z,1.83
2022-08-22T08:13:46.422Z,1.97
2022-08-22T08:15:55.175Z,1.90
2022-08-22T08:18:05.918Z,1.60
2022-08-22T08:20:16.313Z,1.67
2022-08-22T08:22:26.470Z,1.70
2022-08-22T08:24:42.283Z,1.80
2022-08-22T08:27:13.512Z,1.60
2022-08-22T08:29:22.076Z,1.50
2022-08-22T08:31:35.316Z,1.50
2022-08-22T08:33:45.603Z,1.70
2022-08-22T08:36:02.364Z,2.03
2022-08-22T08:38:15.979Z,2.10
2022-08-22T08:40:36.456Z,1.90
2022-08-22T08:43:11.040Z,1.43
2022-08-22T08:45:23.876Z,1.40
2022-08-22T08:47:40.868Z,1.60
2022-08-22T08:50:10.036Z,1.87
2022-08-22T08:52:29.738Z,2.03
2022-08-22T08:54:51.807Z,1.87
2022-08-22T08:57:06.989Z,1.60
2022-08-22T08:59:25.648Z,1.87
2022-08-22T09:01:41.545Z,1.77
2022-08-22T09:04:25.005Z,2.10
2022-08-22T09:06:45.074Z,1.90
2022-08-22T09:09:21.254Z,2.40
2022-08-22T09:11:48.152Z,2.53
2022-08-22T09:14:06.863Z,1.93
2022-08-22T09:16:23.545Z,1.97
2022-08-22T09:18:43.167Z,1.87
2022-08-22T09:20:57.935Z,1.60
2022-08-22T09:23:25.024Z,1.80
2022-08-22T09:25:38.428Z,1.97
2022-08-22T09:27:51.115Z,1.93
2022-08-22T09:30:05.587Z,1.70
2022-08-22T09:32:19.564Z,1.60
2022-08-22T09:34:35.620Z,1.50
2022-08-22T09:36:56.162Z,1.53
2022-08-22T09:39:07.971Z,1.43
2022-08-22T09:41:26.786Z,1.47
2022-08-22T09:43:39.576Z,1.43
2022-08-22T09:46:02.101Z,1.17
2022-08-22T09:48:22.390Z,1.40
2022-08-22T09:50:41.252Z,1.40
2022-08-22T09:52:56.381Z,1.33
2022-08-22T09:55:07.915Z,1.50
2022-08-22T09:57:22.872Z,1.30
2022-08-22T09:59:45.896Z,1.60
2022-08-22T10:02:00.128Z,1.70
2022-08-22T10:04:29.914Z,1.47
2022-08-22T10:06:43.857Z,1.40
2022-08-22T10:09:00.294Z,1.20
2022-08-22T10:11:19.041Z,1.40
2022-08-22T10:13:36.054Z,1.30
2022-08-22T10:15:51.234Z,1.33
2022-08-22T10:18:07.382Z,1.30
2022-08-22T10:20:25.574Z,1.30
2022-08-22T10:22:41.865Z,1.30
2022-08-22T10:24:58.664Z,1.10
2022-08-22T10:27:10.944Z,1.33
2022-08-22T10:29:37.381Z,1.20
2022-08-22T10:31:58.554Z,1.50
2022-08-22T10:34:11.634Z,1.20
2022-08-22T10:36:23.590Z,1.20
2022-08-22T10:38:43.996Z,1.30
2022-08-22T10:40:58.212Z,1.60
2022-08-22T10:43:10.115Z,1.17
2022-08-22T10:45:35.857Z,1.50
2022-08-22T10:48:08.788Z,1.37
2022-08-22T10:50:21.755Z,1.13
2022-08-22T10:52:33.207Z,1.23
2022-08-22T10:54:45.136Z,1.17
2022-08-22T10:56:59.194Z,1.43
2022-08-22T10:59:14.245Z,1.00
2022-08-22T11:01:37.515Z,1.30
2022-08-22T11:03:52.982Z,1.20
2022-08-22T11:06:04.646Z,1.10
2022-08-22T11:08:22.972Z,1.20
2022-08-22T11:10:39.484Z,1.30
2022-08-22T11:12:53.934Z,0.83
2022-08-22T11:15:07.494Z,1.10
2022-08-22T11:17:32.310Z,1.10
2022-08-22T11:19:49.129Z,1.00
2022-08-22T11:22:04.040Z,1.10
2022-08-22T11:24:34.659Z,1.17
2022-08-22T11:26:47.809Z,0.90
2022-08-22T11:29:13.747Z,1.37
2022-08-22T11:31:25.974Z,1.00
2022-08-22T11:33:47.403Z,1.03
2022-08-22T11:36:00.298Z,1.10
2022-08-22T11:38:20.395Z,1.00
2022-08-22T11:40:34.692Z,0.97
2022-08-22T11:42:48.100Z,1.00
2022-08-22T11:44:59.087Z,0.80
2022-08-22T11:47:10.631Z,1.27
2022-08-22T11:49:27.379Z,1.17
2022-08-22T11:51:50.187Z,0.90
2022-08-22T11:54:03.257Z,0.90
2022-08-22T11:56:18.284Z,1.00
2022-08-22T11:58:31.090Z,1.10
2022-08-22T12:00:45.550Z,1.33
2022-08-22T12:03:02.258Z,1.27
2022-08-22T12:05:13.704Z,0.90
2022-08-22T12:07:29.997Z,0.90
2022-08-22T12:09:45.211Z,1.47
2022-08-22T12:12:20.082Z,1.10
2022-08-22T12:14:30.943Z,0.97
2022-08-22T12:16:42.289Z,1.07
2022-08-22T12:18:56.910Z,1.03
2022-08-22T12:21:16.552Z,1.00
2022-08-22T12:23:49.149Z,1.00
2022-08-22T12:26:10.709Z,0.80
2022-08-22T12:28:28.050Z,0.93
2022-08-22T12:30:40.211Z,0.90
2022-08-22T12:33:06.108Z,1.00
2022-08-22T12:35:30.027Z,1.33
2022-08-22T12:37:52.196Z,1.10
2022-08-22T12:40:19.068Z,1.00
2022-08-22T12:42:43.144Z,1.00
2022-08-22T12:45:11.298Z,1.37
2022-08-22T12:47:27.339Z,1.10
2022-08-22T12:49:44.906Z,1.10
2022-08-22T12:52:04.627Z,1.03
2022-08-22T12:54:30.026Z,1.17
2022-08-22T12:56:47.573Z,4.70
2022-08-22T12:59:12.398Z,6.53
2022-08-22T13:01:23.265Z,7.43
2022-08-22T13:03:45.547Z,1.47
2022-08-22T13:05:57.207Z,1.20
2022-08-22T13:08:11.123Z,1.00
2022-08-22T13:10:37.868Z,1.60
2022-08-22T13:12:48.553Z,1.90
2022-08-22T13:15:01.046Z,6.73
2022-08-22T13:17:25.151Z,5.43
2022-08-22T13:19:35.828Z,2.30
2022-08-22T13:21:46.987Z,1.20
2022-08-22T13:23:59.151Z,1.10
2022-08-22T13:26:10.202Z,1.13
2022-08-22T13:28:20.130Z,1.23
2022-08-22T13:30:31.824Z,1.23
2022-08-22T13:32:44.241Z,1.10
2022-08-22T13:34:54.896Z,1.00
2022-08-22T13:37:05.024Z,1.10
2022-08-22T13:39:26.277Z,0.93
2022-08-22T13:41:39.185Z,1.13
2022-08-22T13:44:10.378Z,1.03
2022-08-22T13:46:25.402Z,1.00
2022-08-22T13:48:49.500Z,1.00
2022-08-22T13:51:06.387Z,1.00
2022-08-22T13:53:23.092Z,1.03
2022-08-22T13:55:37.528Z,0.90
2022-08-22T13:57:52.723Z,0.90
2022-08-22T14:00:08.012Z,1.10
2022-08-22T14:02:20.115Z,1.10
2022-08-22T14:04:36.309Z,0.90
2022-08-22T14:06:49.207Z,1.10
2022-08-22T14:08:59.221Z,1.30
2022-08-22T14:11:10.816Z,1.30
2022-08-22T14:13:34.710Z,1.00
2022-08-22T14:15:46.313Z,1.40
2022-08-22T14:17:57.847Z,1.30
2022-08-22T14:20:11.060Z,1.60
2022-08-22T14:22:31.693Z,1.43
2022-08-22T15:35:51.208Z,1.63
2022-08-22T15:38:02.682Z,1.40
2022-08-22T15:40:13.916Z,1.40
2022-08-22T15:42:27.209Z,1.30
2022-08-22T15:44:38.431Z,1.33
2022-08-22T15:46:58.398Z,1.30
2022-08-22T15:49:11.098Z,1.30
2022-08-22T15:51:35.347Z,1.23
2022-08-22T15:54:02.124Z,1.30
2022-08-22T15:56:28.915Z,1.23
2022-08-22T15:58:48.629Z,1.43
2022-08-22T16:01:12.597Z,1.40
2022-08-22T16:03:32.019Z,1.43
2022-08-22T16:05:54.586Z,1.33
2022-08-22T16:08:08.083Z,1.30
2022-08-22T16:10:31.314Z,1.33
2022-08-22T16:12:42.445Z,1.33
2022-08-22T16:14:52.709Z,1.63
2022-08-22T16:17:04.079Z,1.80
2022-08-22T16:19:17.654Z,1.53
2022-08-22T16:21:41.124Z,1.20
2022-08-22T16:24:08.624Z,1.23
2022-08-22T16:26:20.284Z,1.20
2022-08-22T16:28:56.188Z,1.30
2022-08-22T16:31:01.113Z,1.10
2022-08-22T16:33:17.885Z,1.03
2022-08-22T16:35:46.824Z,1.27
2022-08-22T16:37:55.974Z,1.20
2022-08-22T16:40:14.725Z,1.43
2022-08-22T16:42:27.183Z,1.57
2022-08-22T16:44:40.151Z,1.00
2022-08-22T16:46:50.970Z,1.40
2022-08-22T16:49:03.583Z,1.20
2022-08-22T16:51:14.259Z,1.20
2022-08-22T16:53:37.927Z,1.27
2022-08-22T16:56:10.644Z,1.10
2022-08-22T16:58:44.974Z,1.23
2022-08-22T17:01:05.527Z,1.20
2022-08-22T17:03:18.186Z,1.10
2022-08-22T17:05:33.920Z,1.40
2022-08-22T17:07:50.896Z,1.30
2022-08-22T17:10:18.282Z,1.07
2022-08-22T17:12:34.204Z,1.20
2022-08-22T17:14:48.738Z,1.00
2022-08-22T17:17:03.882Z,1.60
2022-08-22T17:19:20.883Z,1.40
2022-08-22T17:21:35.351Z,1.33
2022-08-22T17:23:48.860Z,1.63
2022-08-22T17:26:01.250Z,1.40
2022-08-22T17:28:16.823Z,1.60
2022-08-22T17:30:30.887Z,1.50
2022-08-22T17:32:49.236Z,1.80
2022-08-22T17:35:15.029Z,1.80
2022-08-22T17:37:26.415Z,1.50
2022-08-22T17:39:42.285Z,1.67
2022-08-22T17:41:56.237Z,2.00
2022-08-22T17:44:10.186Z,1.37
2022-08-22T17:46:29.446Z,1.80
2022-08-22T17:48:43.297Z,2.27
2022-08-22T17:50:55.779Z,2.10
2022-08-22T17:53:08.110Z,1.73
2022-08-22T17:55:18.170Z,2.80
2022-08-22T17:57:29.789Z,2.30
2022-08-22T17:59:42.406Z,2.80
2022-08-22T18:01:55.139Z,3.40
2022-08-22T18:04:06.761Z,4.10
2022-08-22T18:06:20.118Z,4.50
2022-08-22T18:09:12.832Z,4.40
2022-08-22T18:11:07.809Z,4.03
2022-08-22T18:13:21.215Z,4.20
2022-08-22T18:15:31.822Z,3.87
2022-08-22T18:17:44.402Z,3.50
2022-08-22T18:19:57.238Z,3.10
2022-08-22T18:22:09.034Z,3.00
2022-08-22T18:24:21.191Z,2.63
2022-08-22T18:26:33.495Z,2.50
2022-08-22T18:28:45.114Z,2.30
2022-08-22T18:30:57.379Z,2.30
2022-08-22T18:33:09.750Z,2.20
2022-08-22T18:35:20.933Z,2.13
2022-08-22T18:37:43.315Z,2.10
2022-08-22T18:39:55.165Z,2.10
2022-08-22T18:42:10.988Z,2.43
2022-08-22T18:44:24.703Z,2.07
2022-08-22T18:46:40.604Z,2.30
2022-08-22T18:49:14.238Z,2.20
2022-08-22T18:51:25.077Z,2.07
2022-08-22T18:53:38.858Z,2.47
2022-08-22T18:55:52.621Z,2.03
2022-08-22T18:58:08.094Z,2.20
2022-08-22T19:00:18.668Z,2.20
2022-08-22T19:02:40.375Z,2.10
2022-08-22T19:04:59.775Z,1.90
2022-08-22T19:07:26.383Z,1.90
2022-08-22T19:09:51.988Z,1.70
2022-08-22T19:12:05.017Z,1.77
2022-08-22T19:14:25.009Z,1.70
2022-08-22T19:16:57.595Z,2.20
2022-08-22T19:19:08.334Z,1.80
2022-08-22T19:21:47.301Z,2.17
2022-08-22T19:23:57.423Z,1.77
2022-08-22T19:26:29.761Z,2.40
2022-08-22T19:28:38.807Z,1.93
2022-08-22T19:30:48.597Z,2.17
2022-08-22T19:33:05.299Z,2.10
2022-08-22T19:35:20.641Z,2.00
2022-08-22T19:37:33.428Z,1.90
2022-08-22T19:39:54.565Z,1.83
2022-08-22T19:42:04.057Z,2.30
2022-08-22T19:44:14.931Z,1.80
2022-08-22T19:46:36.978Z,1.83
2022-08-22T19:48:48.280Z,1.63
2022-08-22T19:51:11.839Z,2.10
2022-08-22T19:53:34.301Z,2.10
2022-08-22T19:55:48.948Z,1.33
2022-08-22T19:58:04.096Z,1.80
2022-08-22T20:00:14.472Z,1.73
2022-08-22T20:02:32.027Z,1.83
2022-08-22T20:04:55.348Z,1.90
2022-08-22T20:07:14.443Z,1.67
2022-08-22T20:09:35.622Z,1.80
2022-08-22T20:11:51.662Z,1.60
2022-08-22T20:14:15.028Z,1.87
2022-08-22T20:16:45.941Z,1.90
2022-08-22T20:19:09.904Z,1.63
2022-08-22T20:21:38.700Z,1.80
2022-08-22T20:23:51.496Z,1.60
2022-08-22T20:26:02.116Z,1.70
2022-08-22T20:28:13.041Z,1.80
2022-08-22T20:30:29.064Z,1.60
2022-08-22T20:32:40.153Z,2.20
2022-08-22T20:34:49.475Z,1.83
2022-08-22T20:37:26.655Z,2.03
2022-08-22T20:39:37.163Z,1.57
2022-08-22T20:41:50.222Z,1.80
2022-08-22T20:44:00.779Z,1.60
2022-08-22T20:46:15.378Z,2.30
2022-08-22T20:48:23.978Z,1.80
2022-08-22T20:50:33.199Z,1.70
2022-08-22T20:52:54.331Z,1.80
2022-08-22T20:55:05.191Z,1.93
2022-08-22T20:57:17.105Z,1.80
2022-08-22T20:59:28.565Z,1.57
2022-08-22T21:01:38.773Z,1.80
2022-08-22T21:03:49.806Z,2.07
2022-08-22T21:05:58.726Z,1.57
2022-08-22T21:08:08.530Z,1.93
2022-08-22T21:10:36.468Z,1.90
2022-08-22T21:13:02.244Z,2.30
2022-08-22T21:15:11.665Z,1.60
2022-08-22T21:17:21.763Z,2.00
2022-08-22T21:19:31.286Z,1.70
2022-08-22T21:21:40.052Z,1.90
2022-08-22T21:23:49.912Z,2.37
2022-08-22T21:26:01.010Z,1.63
2022-08-22T21:28:11.348Z,1.80
2022-08-22T21:30:25.102Z,1.60
2022-08-22T21:32:35.304Z,1.93
2022-08-22T21:34:44.948Z,1.67
2022-08-22T21:36:54.686Z,1.80
2022-08-22T21:39:04.858Z,1.80
2022-08-22T21:41:17.559Z,1.87
2022-08-22T21:43:34.769Z,1.90
2022-08-22T21:45:45.359Z,1.80
2022-08-22T21:47:54.648Z,2.10
2022-08-22T21:50:09.185Z,2.20
2022-08-22T21:52:27.325Z,1.90
2022-08-22T21:54:42.479Z,1.90
2022-08-22T21:56:51.933Z,1.80
2022-08-22T21:59:19.197Z,1.63
2022-08-22T22:01:31.520Z,1.80
2022-08-22T22:03:41.638Z,2.17
2022-08-22T22:05:50.475Z,2.00
2022-08-22T22:08:00.200Z,1.80
2022-08-22T22:10:10.809Z,1.77
2022-08-22T22:12:19.863Z,2.13
2022-08-22T22:14:28.842Z,1.90
2022-08-22T22:16:39.410Z,1.97
2022-08-22T22:18:48.592Z,2.13
2022-08-22T22:20:57.637Z,2.17
2022-08-22T22:23:06.946Z,1.67
2022-08-22T22:25:40.915Z,2.00
2022-08-22T22:27:45.871Z,2.10
2022-08-22T22:29:54.514Z,1.90
2022-08-22T22:32:05.626Z,1.90
2022-08-22T22:34:17.886Z,2.10
2022-08-22T22:36:27.582Z,1.80
2022-08-22T22:38:36.453Z,2.20
2022-08-22T22:40:45.295Z,2.17
2022-08-22T22:42:53.943Z,2.03
2022-08-22T22:45:02.611Z,1.83
2022-08-22T22:47:12.962Z,1.93
2022-08-22T22:49:22.294Z,1.67
2022-08-22T22:51:33.419Z,1.77
2022-08-22T22:53:43.786Z,2.00
2022-08-22T22:55:59.639Z,1.93
2022-08-22T22:58:10.361Z,2.50
2022-08-22T23:00:19.711Z,2.10
2022-08-22T23:02:30.984Z,2.10
2022-08-22T23:04:41.058Z,2.10
2022-08-22T23:06:49.976Z,2.20
2022-08-22T23:08:59.597Z,2.20
2022-08-22T23:11:11.322Z,2.23
2022-08-22T23:13:21.737Z,2.50
2022-08-22T23:15:31.102Z,2.20
2022-08-22T23:17:42.683Z,2.03
2022-08-22T23:19:52.607Z,2.20
2022-08-22T23:22:02.260Z,2.10
2022-08-22T23:24:15.357Z,2.20
2022-08-22T23:26:34.871Z,2.20
2022-08-22T23:28:45.506Z,1.93
2022-08-22T23:30:54.478Z,2.20
2022-08-22T23:33:05.177Z,2.20
2022-08-22T23:35:13.832Z,1.83
2022-08-22T23:37:23.669Z,2.13
2022-08-22T23:39:32.603Z,2.77
2022-08-22T23:41:41.955Z,2.30
2022-08-22T23:43:51.486Z,2.30
2022-08-22T23:46:00.081Z,2.70
2022-08-22T23:48:10.028Z,2.03
2022-08-22T23:50:19.111Z,2.03
2022-08-22T23:52:28.074Z,2.10
2022-08-22T23:54:36.784Z,2.30
2022-08-22T23:56:46.420Z,2.53
2022-08-22T23:58:55.389Z,2.20
